Time;durP1;ratioP1;P1;durP2;ratioP2;P2;SDS_P1;SDS_P2;PMS_P1;PMS_P2;Temp;Humidity;BMP_temperature;BMP_pressure;BME280_temperature;BME280_humidity;BME280_pressure;Samples;Min_cycle;Max_cycle;Signal;HPM_P1;HPM_P2
2021/09/20 04:45:11;;;;;;;20.93;19.50;;;14.80;99.90;;;;;;5690127;23;20490;-70
2021/09/20 04:47:38;;;;;;;20.57;19.03;;;14.80;99.90;;;;;;5003087;28;20465;-73
2021/09/20 04:50:06;;;;;;;20.23;18.90;;;14.80;99.90;;;;;;4994299;28;20442;-72
2021/09/20 04:52:33;;;;;;;19.90;18.80;;;14.90;99.90;;;;;;4997289;28;20875;-72
2021/09/20 04:54:59;;;;;;;21.57;20.07;;;14.90;99.90;;;;;;5005483;28;20453;-72
2021/09/20 04:57:26;;;;;;;20.80;19.50;;;14.90;99.90;;;;;;5002162;28;20509;-72
2021/09/20 04:59:53;;;;;;;20.73;19.27;;;14.90;99.90;;;;;;5002515;28;20450;-73
2021/09/20 05:02:21;;;;;;;20.57;19.17;;;14.90;99.90;;;;;;5001362;28;20439;-73
2021/09/20 05:04:48;;;;;;;19.73;18.57;;;14.80;99.90;;;;;;5000226;28;20443;-73
2021/09/20 05:07:14;;;;;;;21.20;19.77;;;14.80;99.90;;;;;;5002317;28;20481;-72
2021/09/20 05:09:41;;;;;;;18.90;17.60;;;14.80;99.90;;;;;;5001198;28;20447;-73
2021/09/20 05:12:08;;;;;;;20.07;18.67;;;14.90;99.90;;;;;;4999770;28;21312;-72
2021/09/20 05:14:34;;;;;;;20.13;18.83;;;14.90;99.90;;;;;;5002256;28;20835;-73
2021/09/20 05:17:04;;;;;;;20.47;19.07;;;14.90;99.90;;;;;;5001124;28;20447;-74
2021/09/20 05:19:32;;;;;;;20.03;18.93;;;14.90;99.90;;;;;;5000165;28;20823;-73
2021/09/20 05:21:59;;;;;;;20.53;19.23;;;14.90;99.90;;;;;;5001540;28;20472;-73
2021/09/20 05:24:26;;;;;;;19.93;18.73;;;14.90;99.90;;;;;;5001895;28;20825;-73
2021/09/20 05:26:53;;;;;;;21.27;20.07;;;14.90;99.90;;;;;;5000232;28;20446;-73
2021/09/20 05:29:19;;;;;;;18.70;17.50;;;14.90;99.90;;;;;;5000701;28;20973;-71
2021/09/20 05:31:46;;;;;;;19.50;18.30;;;14.90;99.90;;;;;;5001588;28;20435;-72
2021/09/20 05:34:13;;;;;;;20.17;19.00;;;14.80;99.90;;;;;;4999614;28;20630;-72
2021/09/20 05:36:41;;;;;;;21.80;20.30;;;14.90;99.90;;;;;;5001224;28;20959;-71
2021/09/20 05:39:08;;;;;;;21.17;19.63;;;14.90;99.90;;;;;;5003415;28;20912;-71
2021/09/20 05:41:34;;;;;;;20.67;19.37;;;15.00;99.90;;;;;;4998959;28;20450;-71
2021/09/20 05:44:01;;;;;;;19.67;18.30;;;15.10;99.90;;;;;;5009356;28;20470;-73
2021/09/20 05:46:28;;;;;;;21.07;19.47;;;15.20;99.90;;;;;;5011683;28;20477;-73
2021/09/20 05:48:54;;;;;;;20.40;19.10;;;15.30;99.90;;;;;;5011330;28;20446;-71
2021/09/20 05:51:21;;;;;;;20.93;19.63;;;15.20;99.90;;;;;;5012035;28;20511;-74
2021/09/20 05:53:49;;;;;;;19.17;17.87;;;15.30;99.90;;;;;;5001540;28;20486;-73
2021/09/20 05:56:15;;;;;;;21.07;19.67;;;15.50;99.90;;;;;;4998618;28;20459;-75
2021/09/20 05:58:42;;;;;;;20.00;18.80;;;15.60;99.90;;;;;;5002531;28;20761;-74
2021/09/20 06:01:09;;;;;;;18.63;17.33;;;15.70;99.90;;;;;;5011638;28;20519;-74
2021/09/20 06:03:36;;;;;;;19.93;18.73;;;15.60;99.90;;;;;;5002967;28;20443;-77
2021/09/20 06:06:03;;;;;;;20.93;19.40;;;15.60;99.90;;;;;;4993224;28;20455;-74
2021/09/20 06:08:30;;;;;;;21.53;20.10;;;15.60;99.90;;;;;;4991677;28;20513;-73
2021/09/20 06:10:58;;;;;;;18.70;17.60;;;15.60;99.90;;;;;;4991646;28;20458;-74
2021/09/20 06:13:25;;;;;;;20.03;18.63;;;15.60;99.90;;;;;;4991841;28;20859;-74
2021/09/20 06:15:52;;;;;;;19.77;18.57;;;15.60;99.90;;;;;;4991798;28;20458;-71
2021/09/20 06:18:19;;;;;;;19.80;18.60;;;15.80;99.90;;;;;;4989755;28;21007;-73
2021/09/20 06:20:46;;;;;;;19.20;17.87;;;15.80;99.90;;;;;;4991563;28;20443;-71
2021/09/20 06:23:12;;;;;;;21.63;20.20;;;16.00;99.90;;;;;;4991107;28;20853;-71
2021/09/20 06:25:40;;;;;;;20.43;19.23;;;16.00;99.90;;;;;;4991906;28;20925;-71
2021/09/20 06:28:08;;;;;;;20.20;18.90;;;16.00;99.90;;;;;;4991932;28;20474;-71
2021/09/20 06:30:35;;;;;;;18.73;17.53;;;15.90;99.90;;;;;;4991730;28;20817;-71
2021/09/20 06:33:02;;;;;;;18.27;17.17;;;15.90;99.90;;;;;;4991302;28;21004;-72
2021/09/20 06:35:29;;;;;;;18.53;17.20;;;16.00;99.90;;;;;;4991526;28;20463;-70
2021/09/20 06:37:55;;;;;;;20.17;18.73;;;16.00;99.90;;;;;;4991489;28;20450;-72
2021/09/20 06:40:22;;;;;;;21.23;19.63;;;15.90;99.90;;;;;;4991650;28;20455;-72
2021/09/20 06:42:49;;;;;;;20.10;18.70;;;15.80;99.90;;;;;;4991567;28;20447;-73
2021/09/20 06:45:17;;;;;;;21.30;19.90;;;15.80;99.90;;;;;;4991212;28;20490;-71
2021/09/20 06:47:43;;;;;;;19.83;18.70;;;15.80;99.90;;;;;;4991556;28;20709;-74
2021/09/20 06:50:11;;;;;;;20.10;18.90;;;15.80;99.90;;;;;;4991610;28;20454;-74
2021/09/20 06:52:38;;;;;;;20.53;19.20;;;16.00;99.90;;;;;;4991234;28;20498;-74
2021/09/20 06:55:06;;;;;;;19.90;18.70;;;16.00;99.90;;;;;;4989886;28;20454;-73
2021/09/20 06:57:33;;;;;;;20.17;19.00;;;15.90;99.90;;;;;;4990215;28;20443;-73
2021/09/20 06:59:59;;;;;;;20.33;18.93;;;15.80;99.90;;;;;;4990618;28;20896;-72
2021/09/20 07:02:27;;;;;;;19.73;18.60;;;15.90;99.90;;;;;;4991050;28;20458;-72
2021/09/20 07:04:54;;;;;;;21.87;20.27;;;15.90;99.90;;;;;;4991041;28;20450;-72
2021/09/20 07:07:21;;;;;;;19.93;18.43;;;16.10;99.90;;;;;;4991336;28;20827;-72
2021/09/20 07:09:48;;;;;;;20.50;19.20;;;16.20;99.90;;;;;;4991114;28;20889;-73
2021/09/20 07:12:14;;;;;;;20.50;18.93;;;16.20;99.90;;;;;;4991097;28;20454;-74
2021/09/20 07:14:42;;;;;;;19.83;18.53;;;16.40;99.90;;;;;;4990824;28;20487;-73
2021/09/20 07:17:08;;;;;;;21.30;19.80;;;16.40;99.90;;;;;;4991200;28;20517;-72
2021/09/20 07:19:36;;;;;;;19.47;18.27;;;16.50;99.90;;;;;;4991011;28;20454;-73
2021/09/20 07:22:03;;;;;;;21.83;20.27;;;16.60;99.90;;;;;;4990870;28;20509;-73
2021/09/20 07:24:30;;;;;;;20.87;19.37;;;16.70;99.90;;;;;;4991001;28;20462;-73
2021/09/20 07:26:58;;;;;;;21.87;20.10;;;16.90;99.90;;;;;;4990999;28;20449;-72
2021/09/20 07:29:25;;;;;;;21.77;20.20;;;17.00;99.90;;;;;;4991079;28;20541;-73
2021/09/20 07:31:52;;;;;;;21.10;19.57;;;17.10;99.90;;;;;;4991165;28;20457;-72
2021/09/20 07:34:18;;;;;;;20.77;19.13;;;17.20;99.90;;;;;;4991538;28;20482;-73
2021/09/20 07:36:46;;;;;;;19.93;18.57;;;17.10;99.90;;;;;;4994756;28;20525;-73
2021/09/20 07:39:13;;;;;;;21.43;19.97;;;17.30;99.90;;;;;;4994689;28;20508;-73
2021/09/20 07:41:40;;;;;;;20.40;18.90;;;17.60;99.90;;;;;;4994778;28;20447;-73
2021/09/20 07:44:06;;;;;;;20.00;18.80;;;17.60;99.90;;;;;;4994826;28;20471;-74
2021/09/20 07:46:33;;;;;;;21.50;20.03;;;17.60;99.90;;;;;;4994428;28;20834;-73
2021/09/20 07:49:00;;;;;;;21.33;19.90;;;17.60;99.90;;;;;;4994578;28;20454;-74
2021/09/20 07:51:26;;;;;;;20.90;19.30;;;17.80;99.90;;;;;;4994586;28;20537;-74
2021/09/20 07:53:54;;;;;;;21.53;20.07;;;18.00;99.90;;;;;;4994556;28;20541;-74
2021/09/20 07:56:21;;;;;;;21.80;20.00;;;18.30;99.90;;;;;;4994565;28;20458;-74
2021/09/20 07:58:48;;;;;;;20.93;19.60;;;18.40;99.90;;;;;;4994930;28;20450;-73
2021/09/20 08:01:15;;;;;;;21.10;19.80;;;18.10;99.90;;;;;;4994779;28;20477;-73
2021/09/20 08:03:41;;;;;;;20.87;19.57;;;18.20;99.90;;;;;;4994402;28;20944;-74
2021/09/20 08:06:08;;;;;;;22.73;21.23;;;17.90;99.90;;;;;;4994490;28;20454;-74
2021/09/20 08:08:35;;;;;;;21.07;19.47;;;17.80;99.90;;;;;;4994348;28;20450;-74
2021/09/20 08:11:03;;;;;;;22.07;20.47;;;17.90;99.90;;;;;;4994168;28;20459;-73
2021/09/20 08:13:30;;;;;;;21.70;20.10;;;18.00;99.90;;;;;;4994084;28;20513;-73
2021/09/20 08:15:57;;;;;;;22.30;20.70;;;18.10;99.90;;;;;;4994243;28;20454;-73
2021/09/20 08:18:23;;;;;;;21.07;19.77;;;18.20;99.90;;;;;;4994341;28;20454;-73
2021/09/20 08:20:50;;;;;;;21.87;19.97;;;18.30;99.90;;;;;;4994204;28;20451;-73
2021/09/20 08:23:17;;;;;;;22.03;20.43;;;18.40;99.90;;;;;;4994002;28;20450;-73
2021/09/20 08:25:44;;;;;;;22.77;21.07;;;18.70;99.90;;;;;;4993764;28;20578;-72
2021/09/20 08:28:12;;;;;;;23.13;21.43;;;18.90;99.90;;;;;;4993827;28;20463;-73
2021/09/20 08:30:40;;;;;;;23.57;21.73;;;19.00;99.90;;;;;;4993914;28;20884;-74
2021/09/20 08:33:07;;;;;;;24.27;22.47;;;19.30;99.90;;;;;;4993805;28;20513;-73
2021/09/20 08:35:34;;;;;;;23.00;21.30;;;19.30;99.90;;;;;;4993817;28;20459;-73
2021/09/20 08:38:01;;;;;;;22.83;21.33;;;19.40;99.90;;;;;;4993777;28;20835;-72
2021/09/20 08:40:29;;;;;;;22.60;21.00;;;19.40;99.90;;;;;;4993588;28;20462;-74
2021/09/20 08:42:57;;;;;;;22.70;21.10;;;19.70;99.90;;;;;;4993314;28;20463;-74
2021/09/20 08:45:27;;;;;;;22.80;21.00;;;19.70;99.90;;;;;;4993246;28;20532;-73
2021/09/20 08:47:55;;;;;;;23.20;21.57;;;19.90;99.90;;;;;;4992859;28;20461;-74
2021/09/20 08:50:24;;;;;;;23.60;21.80;;;20.00;99.90;;;;;;4993730;28;20952;-74
2021/09/20 08:52:52;;;;;;;23.40;21.90;;;19.90;99.90;;;;;;4993446;28;20813;-73
2021/09/20 08:55:19;;;;;;;21.30;19.90;;;19.80;99.90;;;;;;4993065;28;20490;-74
2021/09/20 08:57:45;;;;;;;23.23;21.67;;;20.10;99.90;;;;;;4993317;28;20450;-74
2021/09/20 09:00:14;;;;;;;23.73;22.13;;;20.10;99.90;;;;;;4993075;28;20458;-74
2021/09/20 09:02:42;;;;;;;24.77;22.93;;;19.50;99.90;;;;;;4993210;28;20462;-73
2021/09/20 09:05:14;;;;;;;25.37;23.47;;;19.60;99.90;;;;;;4993013;28;20447;-74
2021/09/20 09:07:43;;;;;;;22.43;20.90;;;19.90;99.90;;;;;;4991186;28;20455;-74
2021/09/20 09:10:10;;;;;;;22.40;20.90;;;20.60;99.90;;;;;;4993021;28;20461;-74
2021/09/20 09:12:37;;;;;;;21.90;20.50;;;20.30;99.90;;;;;;4991192;28;20455;-74
2021/09/20 09:15:06;;;;;;;22.13;20.30;;;20.70;99.90;;;;;;4992797;28;20479;-74
2021/09/20 09:17:35;;;;;;;25.20;23.50;;;20.90;99.90;;;;;;4992363;28;20482;-74
2021/09/20 09:20:06;;;;;;;23.40;21.70;;;20.60;99.90;;;;;;4992789;28;20451;-74
2021/09/20 09:22:43;;;;;;;23.27;21.53;;;20.50;99.90;;;;;;4992635;28;20475;-74
2021/09/20 09:25:12;;;;;;;23.83;22.23;;;20.80;99.90;;;;;;4992629;28;20454;-74
2021/09/20 09:27:40;;;;;;;23.83;22.13;;;21.10;99.90;;;;;;4992957;28;20470;-74
2021/09/20 09:30:12;;;;;;;23.50;22.00;;;21.40;99.90;;;;;;4992749;28;20454;-74
2021/09/20 09:32:41;;;;;;;24.17;22.33;;;21.00;99.90;;;;;;4992866;28;20455;-74
2021/09/20 09:35:11;;;;;;;23.20;21.60;;;20.80;99.90;;;;;;4992755;28;20493;-74
2021/09/20 09:37:39;;;;;;;24.77;22.97;;;20.70;99.90;;;;;;4992783;28;20450;-73
2021/09/20 09:40:16;;;;;;;24.40;22.60;;;20.40;99.90;;;;;;4992742;28;20964;-74
2021/09/20 09:42:44;;;;;;;23.53;21.73;;;20.50;99.90;;;;;;4992706;28;20463;-73
2021/09/20 09:45:17;;;;;;;22.93;21.43;;;20.40;99.90;;;;;;4992568;28;20486;-74
2021/09/20 09:47:44;;;;;;;24.40;22.90;;;20.60;99.90;;;;;;4992835;28;20598;-73
2021/09/20 09:50:19;;;;;;;22.10;20.60;;;20.60;99.90;;;;;;4992627;28;20850;-74
2021/09/20 09:52:47;;;;;;;25.50;23.67;;;20.70;99.90;;;;;;4992879;28;20458;-73
2021/09/20 09:55:14;;;;;;;23.27;21.77;;;20.80;99.90;;;;;;4992503;28;20495;-73
2021/09/20 09:57:41;;;;;;;24.40;22.70;;;20.70;99.90;;;;;;4991522;28;20454;-73
2021/09/20 10:00:11;;;;;;;22.90;21.20;;;20.90;99.90;;;;;;4992154;28;20513;-73
2021/09/20 10:02:40;;;;;;;24.20;22.37;;;20.60;99.90;;;;;;4992406;28;20459;-73
2021/09/20 10:05:09;;;;;;;24.43;22.83;;;20.60;99.90;;;;;;4992524;28;20501;-73
2021/09/20 10:07:38;;;;;;;24.20;22.40;;;20.70;99.90;;;;;;4992438;28;20451;-73
2021/09/20 10:10:08;;;;;;;23.40;21.67;;;20.40;99.90;;;;;;4992126;28;20454;-74
2021/09/20 10:12:35;;;;;;;24.00;22.40;;;20.60;99.90;;;;;;4992064;28;20451;-74
2021/09/20 10:15:03;;;;;;;26.10;23.50;;;20.40;99.90;;;;;;4990175;28;20527;-74
2021/09/20 10:17:31;;;;;;;26.23;24.00;;;20.30;99.90;;;;;;4991912;28;20513;-73
2021/09/20 10:20:00;;;;;;;24.30;22.47;;;20.50;99.90;;;;;;4991804;28;20976;-74
2021/09/20 10:22:27;;;;;;;24.03;22.37;;;20.30;99.90;;;;;;4991941;28;20459;-74
2021/09/20 10:25:03;;;;;;;24.97;23.07;;;20.10;99.90;;;;;;4991965;28;20994;-74
2021/09/20 10:27:31;;;;;;;24.30;22.60;;;19.90;99.90;;;;;;4991805;28;20872;-74
2021/09/20 10:30:01;;;;;;;26.20;24.20;;;20.00;99.90;;;;;;4991700;28;20450;-74
2021/09/20 10:32:29;;;;;;;22.57;21.10;;;19.90;99.90;;;;;;4991610;28;20456;-73
2021/09/20 10:35:22;;;;;;;24.77;23.07;;;19.90;99.90;;;;;;4991670;28;20491;-73
2021/09/20 10:37:48;;;;;;;23.67;22.07;;;19.80;99.90;;;;;;4991934;28;20451;-74
2021/09/20 10:40:17;;;;;;;24.30;22.60;;;19.80;99.90;;;;;;4991687;28;21038;-74
2021/09/20 10:43:02;;;;;;;25.23;23.43;;;19.80;99.90;;;;;;4991664;28;20451;-74
2021/09/20 10:45:53;;;;;;;24.10;22.40;;;19.80;99.90;;;;;;4991485;28;20541;-74
2021/09/20 10:48:30;;;;;;;23.93;22.33;;;19.70;99.90;;;;;;4991885;28;20467;-74
2021/09/20 10:51:03;;;;;;;23.27;21.43;;;19.90;99.90;;;;;;4991555;28;20453;-73
2021/09/20 10:53:33;;;;;;;23.63;22.03;;;19.50;99.90;;;;;;4991778;28;20462;-73
2021/09/20 10:56:16;;;;;;;23.73;21.90;;;19.60;99.90;;;;;;4991495;28;20463;-73
2021/09/20 10:59:05;;;;;;;24.03;22.40;;;19.90;99.90;;;;;;4991555;28;20465;-73
2021/09/20 11:01:34;;;;;;;24.47;22.67;;;20.20;99.90;;;;;;4991218;28;20850;-73
2021/09/20 11:04:02;;;;;;;23.57;21.97;;;20.20;99.90;;;;;;4991416;28;20450;-73
2021/09/20 11:06:30;;;;;;;25.97;24.17;;;20.00;99.90;;;;;;4991369;28;20446;-73
2021/09/20 11:09:31;;;;;;;23.67;22.00;;;20.10;99.90;;;;;;4990823;28;20450;-73
2021/09/20 11:12:08;;;;;;;23.07;21.47;;;20.30;99.90;;;;;;4991341;28;20541;-73
2021/09/20 11:14:41;;;;;;;24.20;21.93;;;20.70;99.90;;;;;;4991283;28;20482;-73
2021/09/20 11:17:42;;;;;;;23.77;22.00;;;21.20;99.90;;;;;;4991400;28;20482;-74
2021/09/20 11:20:36;;;;;;;23.00;21.30;;;21.60;99.90;;;;;;4980779;28;20875;-74
2021/09/20 11:23:21;;;;;;;23.80;22.13;;;22.00;99.90;;;;;;4991068;28;20450;-73
2021/09/20 11:26:09;;;;;;;21.60;20.20;;;22.50;99.90;;;;;;4991176;28;20454;-74
2021/09/20 11:28:39;;;;;;;24.30;22.60;;;22.80;99.90;;;;;;4991241;28;20798;-74
2021/09/20 11:31:06;;;;;;;23.10;21.43;;;22.40;99.90;;;;;;4991236;28;20451;-74
2021/09/20 11:33:38;;;;;;;24.10;22.50;;;22.20;99.90;;;;;;4991006;28;20458;-74
2021/09/20 11:36:21;;;;;;;22.53;21.03;;;22.30;99.90;;;;;;4991088;28;20490;-73
2021/09/20 11:38:49;;;;;;;22.57;21.07;;;22.00;99.90;;;;;;4990836;28;20473;-74
2021/09/20 11:41:24;;;;;;;22.87;21.17;;;22.30;99.90;;;;;;4990810;28;20608;-74
2021/09/20 11:43:54;;;;;;;23.73;22.20;;;22.70;99.90;;;;;;4991064;28;20848;-74
2021/09/20 11:46:25;;;;;;;21.87;20.43;;;22.40;99.90;;;;;;4990838;28;20574;-74
2021/09/20 11:49:03;;;;;;;22.37;21.03;;;22.40;99.90;;;;;;4991152;28;20460;-74
2021/09/20 11:51:30;;;;;;;23.93;22.33;;;22.10;99.90;;;;;;4990825;28;20447;-74
2021/09/20 11:53:56;;;;;;;23.10;21.60;;;22.00;99.90;;;;;;4990701;28;20462;-74
2021/09/20 11:56:28;;;;;;;22.20;20.77;;;22.20;99.90;;;;;;4990938;28;20450;-74
2021/09/20 11:58:57;;;;;;;24.10;22.40;;;22.20;99.90;;;;;;4990950;28;20486;-74
2021/09/20 12:01:26;;;;;;;22.83;21.37;;;22.40;99.90;;;;;;4990980;28;20459;-74
2021/09/20 12:03:54;;;;;;;25.50;23.20;;;22.30;99.90;;;;;;4990928;28;20450;-74
2021/09/20 12:06:26;;;;;;;21.97;20.63;;;22.40;99.90;;;;;;4990860;28;20450;-74
2021/09/20 12:08:53;;;;;;;21.60;20.20;;;22.70;99.90;;;;;;4990825;28;20936;-74
2021/09/20 12:11:23;;;;;;;21.70;20.10;;;22.90;99.90;;;;;;4990737;28;20459;-73
2021/09/20 12:13:50;;;;;;;22.43;20.80;;;22.60;99.90;;;;;;4990586;28;20542;-73
2021/09/20 12:16:18;;;;;;;24.97;22.40;;;22.90;99.80;;;;;;4990723;28;20828;-73
2021/09/20 12:18:45;;;;;;;23.63;21.30;;;23.00;99.90;;;;;;4990679;28;20447;-74
2021/09/20 12:21:13;;;;;;;22.80;21.30;;;22.50;99.90;;;;;;4990933;28;20459;-73
2021/09/20 12:23:43;;;;;;;23.73;21.40;;;21.90;99.90;;;;;;4994031;28;20462;-74
2021/09/20 12:26:11;;;;;;;21.70;20.40;;;21.80;99.90;;;;;;4994023;28;20450;-73
2021/09/20 12:28:40;;;;;;;32.07;24.50;;;21.60;99.90;;;;;;4994235;28;20477;-74
2021/09/20 12:31:10;;;;;;;50.57;25.17;;;21.60;99.90;;;;;;4994168;28;20462;-74
2021/09/20 12:33:51;;;;;;;21.57;20.20;;;21.70;99.90;;;;;;4994099;28;20530;-73
2021/09/20 12:36:23;;;;;;;20.07;18.97;;;21.90;99.90;;;;;;4993940;28;20482;-73
2021/09/20 12:39:03;;;;;;;20.70;19.30;;;22.10;99.90;;;;;;4994022;28;20450;-74
2021/09/20 12:41:35;;;;;;;23.23;21.13;;;22.40;99.90;;;;;;4993790;28;21006;-73
2021/09/20 12:44:03;;;;;;;20.30;18.90;;;22.90;99.90;;;;;;4993665;28;20474;-74
2021/09/20 12:46:32;;;;;;;23.80;21.63;;;22.70;99.80;;;;;;4993675;28;20513;-74
2021/09/20 12:49:01;;;;;;;22.23;20.07;;;22.70;99.80;;;;;;4993756;28;20465;-73
2021/09/20 12:51:34;;;;;;;21.90;20.40;;;22.50;99.90;;;;;;4993639;28;20840;-74
2021/09/20 12:54:01;;;;;;;21.10;19.63;;;22.30;99.60;;;;;;4993570;28;20489;-73
2021/09/20 12:56:31;;;;;;;19.30;18.20;;;22.40;99.90;;;;;;4993487;28;20490;-74
2021/09/20 12:59:12;;;;;;;19.00;17.67;;;22.70;99.30;;;;;;4993479;28;20450;-73
2021/09/20 13:01:46;;;;;;;19.50;18.37;;;22.60;99.40;;;;;;4993629;28;20459;-74
2021/09/20 13:04:24;;;;;;;19.40;18.30;;;22.80;99.20;;;;;;4993561;28;20537;-74
2021/09/20 13:06:59;;;;;;;20.37;19.13;;;23.00;98.20;;;;;;4993414;28;20454;-74
2021/09/20 13:09:25;;;;;;;20.40;19.10;;;22.90;98.50;;;;;;4993229;28;20454;-74
2021/09/20 13:11:52;;;;;;;19.13;17.87;;;23.10;98.50;;;;;;4993370;28;20459;-74
2021/09/20 13:14:22;;;;;;;19.70;18.43;;;22.80;98.90;;;;;;4993057;28;20443;-74
2021/09/20 13:16:49;;;;;;;20.13;18.83;;;23.10;98.10;;;;;;4992871;28;20928;-74
2021/09/20 13:19:17;;;;;;;19.70;18.40;;;23.00;98.10;;;;;;4993129;28;20454;-74
2021/09/20 13:21:44;;;;;;;18.20;17.20;;;23.10;97.70;;;;;;4993167;28;20455;-74
2021/09/20 13:24:30;;;;;;;19.50;18.40;;;23.70;97.30;;;;;;4992716;28;20465;-73
2021/09/20 13:26:57;;;;;;;19.80;18.63;;;23.90;96.80;;;;;;4992897;28;20469;-74
2021/09/20 13:29:23;;;;;;;19.17;18.07;;;23.90;96.60;;;;;;4992771;28;20446;-73
2021/09/20 13:31:50;;;;;;;19.67;18.13;;;24.40;96.30;;;;;;4992668;28;20455;-73
2021/09/20 13:34:19;;;;;;;20.10;18.63;;;24.20;96.00;;;;;;4992465;28;20467;-74
2021/09/20 13:36:46;;;;;;;20.20;19.00;;;24.10;96.20;;;;;;4992752;28;20486;-73
2021/09/20 13:39:12;;;;;;;20.00;18.73;;;23.40;96.20;;;;;;4991021;28;20517;-73
2021/09/20 13:41:40;;;;;;;19.30;18.30;;;23.20;97.20;;;;;;4992970;28;20455;-74
2021/09/20 13:44:07;;;;;;;18.90;18.00;;;23.00;97.30;;;;;;4992722;28;20529;-74
2021/09/20 13:46:33;;;;;;;18.30;17.40;;;23.00;97.80;;;;;;4992454;28;20816;-74
2021/09/20 13:49:00;;;;;;;18.47;17.47;;;22.90;97.50;;;;;;4992448;28;20941;-74
2021/09/20 13:51:28;;;;;;;18.90;17.80;;;22.80;97.40;;;;;;4992392;28;20450;-74
2021/09/20 13:53:55;;;;;;;20.10;18.90;;;22.70;97.50;;;;;;4992533;28;20455;-74
2021/09/20 13:56:22;;;;;;;20.47;19.27;;;22.50;97.70;;;;;;4992731;28;20482;-74
2021/09/20 13:58:51;;;;;;;19.03;18.03;;;22.40;97.60;;;;;;4992249;28;20810;-74
2021/09/20 14:01:24;;;;;;;18.53;17.53;;;22.20;98.20;;;;;;4992365;28;20984;-74
2021/09/20 14:03:53;;;;;;;19.10;18.10;;;21.80;97.90;;;;;;4992332;28;20455;-74
2021/09/20 14:06:20;;;;;;;17.80;16.80;;;21.50;98.60;;;;;;4992385;28;20537;-74
2021/09/20 14:08:48;;;;;;;18.00;16.93;;;21.50;98.90;;;;;;4992314;28;20451;-74
2021/09/20 14:11:15;;;;;;;19.00;17.90;;;21.70;98.50;;;;;;4992136;28;20899;-74
2021/09/20 14:13:43;;;;;;;19.43;18.13;;;21.70;98.00;;;;;;4992033;28;20451;-74
2021/09/20 14:16:09;;;;;;;18.80;17.80;;;21.70;98.30;;;;;;4990294;28;21016;-75
2021/09/20 14:18:36;;;;;;;17.40;16.50;;;21.80;97.80;;;;;;4992152;28;20450;-74
2021/09/20 14:21:03;;;;;;;18.00;17.00;;;21.80;98.20;;;;;;4991886;28;20447;-74
2021/09/20 14:23:29;;;;;;;17.70;16.80;;;22.00;98.10;;;;;;4992037;28;20825;-74
2021/09/20 14:25:58;;;;;;;19.10;18.00;;;21.50;98.40;;;;;;4991825;28;20453;-74
2021/09/20 14:28:24;;;;;;;18.40;17.30;;;21.30;99.10;;;;;;4991769;28;20521;-74
2021/09/20 14:30:51;;;;;;;18.13;17.10;;;21.00;98.70;;;;;;4992013;28;20454;-74
2021/09/20 14:33:18;;;;;;;19.33;18.27;;;20.80;99.50;;;;;;4991671;28;20945;-74
2021/09/20 14:35:45;;;;;;;18.23;17.13;;;20.70;99.90;;;;;;4991637;28;20490;-73
2021/09/20 14:38:12;;;;;;;17.23;16.23;;;20.60;99.90;;;;;;4991625;28;20470;-74
2021/09/20 14:40:39;;;;;;;17.37;16.27;;;20.80;99.90;;;;;;4991903;28;20455;-74
2021/09/20 14:43:08;;;;;;;18.20;17.00;;;20.60;99.90;;;;;;4991598;28;20538;-74
2021/09/20 14:45:35;;;;;;;18.53;17.27;;;20.60;99.90;;;;;;4989021;28;20478;-73
2021/09/20 14:48:04;;;;;;;18.57;17.47;;;20.70;99.90;;;;;;4991562;28;20465;-74
2021/09/20 14:50:31;;;;;;;18.10;17.10;;;20.70;99.90;;;;;;4991688;28;20459;-74
2021/09/20 14:52:58;;;;;;;18.87;17.73;;;20.70;99.90;;;;;;4989923;28;20451;-72
2021/09/20 14:55:26;;;;;;;18.17;16.97;;;20.80;99.90;;;;;;4991424;28;20517;-72
2021/09/20 14:57:53;;;;;;;18.60;17.53;;;20.60;99.90;;;;;;4991466;28;20501;-73
2021/09/20 15:00:22;;;;;;;17.07;16.10;;;20.40;99.90;;;;;;4991452;28;20460;-73
2021/09/20 15:02:49;;;;;;;18.07;17.10;;;20.40;99.90;;;;;;4991397;28;20458;-72
2021/09/20 15:05:16;;;;;;;16.50;15.50;;;20.20;99.90;;;;;;4991312;28;21145;-73
2021/09/20 15:07:44;;;;;;;17.43;16.33;;;20.00;99.90;;;;;;4991237;28;20454;-73
2021/09/20 15:10:12;;;;;;;18.73;17.63;;;19.90;99.90;;;;;;4991286;28;20451;-74
2021/09/20 15:12:40;;;;;;;18.63;17.63;;;20.10;99.90;;;;;;4991268;28;20453;-73
2021/09/20 15:15:09;;;;;;;19.03;18.03;;;20.20;99.90;;;;;;4991309;28;20454;-73
2021/09/20 15:17:37;;;;;;;19.23;18.13;;;20.20;99.90;;;;;;4991146;28;20461;-73
2021/09/20 15:20:05;;;;;;;17.83;16.83;;;20.30;99.90;;;;;;4991045;28;20457;-73
2021/09/20 15:22:32;;;;;;;17.80;16.80;;;20.30;99.90;;;;;;4990933;28;20454;-73
2021/09/20 15:24:58;;;;;;;18.10;17.10;;;20.20;99.90;;;;;;4991131;28;20459;-73
2021/09/20 15:27:25;;;;;;;18.97;17.77;;;20.10;99.90;;;;;;4990924;28;20797;-73
2021/09/20 15:29:52;;;;;;;17.93;16.73;;;20.10;99.90;;;;;;4991087;28;20463;-73
2021/09/20 15:32:19;;;;;;;17.63;16.70;;;20.00;99.90;;;;;;4990965;28;20451;-72
2021/09/20 15:34:47;;;;;;;17.83;16.83;;;19.90;99.90;;;;;;4991007;28;20461;-73
2021/09/20 15:37:14;;;;;;;17.93;16.93;;;19.80;99.90;;;;;;4990878;28;20893;-72
2021/09/20 15:39:40;;;;;;;18.40;17.20;;;19.60;99.90;;;;;;4990896;28;20513;-73
2021/09/20 15:42:08;;;;;;;17.77;16.70;;;19.60;99.90;;;;;;4990729;28;20451;-73
2021/09/20 15:44:34;;;;;;;18.23;17.20;;;19.60;99.90;;;;;;4990426;28;20509;-73
2021/09/20 15:47:01;;;;;;;17.80;16.80;;;19.50;99.90;;;;;;4990857;28;20487;-73
2021/09/20 15:49:28;;;;;;;17.97;16.90;;;19.60;99.90;;;;;;4990763;28;20450;-73
2021/09/20 15:51:56;;;;;;;18.40;17.23;;;19.50;99.90;;;;;;4990814;28;20455;-72
2021/09/20 15:54:23;;;;;;;18.73;17.57;;;19.50;99.90;;;;;;4990969;28;20467;-72
2021/09/20 15:56:55;;;;;;;18.57;17.17;;;19.60;99.90;;;;;;4993710;28;20497;-72
2021/09/20 15:59:22;;;;;;;18.93;17.60;;;19.90;99.90;;;;;;4994773;28;20463;-73
2021/09/20 16:01:49;;;;;;;19.30;18.03;;;19.90;99.90;;;;;;4994744;28;20458;-72
2021/09/20 16:04:16;;;;;;;18.63;17.63;;;19.60;99.90;;;;;;4994405;28;20457;-72
2021/09/20 16:06:42;;;;;;;17.93;16.93;;;19.50;99.90;;;;;;4994390;28;20831;-72
2021/09/20 16:09:10;;;;;;;18.73;17.57;;;19.40;99.90;;;;;;4994671;28;20484;-72
2021/09/20 16:11:39;;;;;;;16.70;15.60;;;19.20;99.90;;;;;;4994520;28;20929;-72
2021/09/20 16:14:06;;;;;;;17.40;16.30;;;19.20;99.90;;;;;;4994435;28;20944;-72
2021/09/20 16:16:33;;;;;;;17.80;16.70;;;19.10;99.90;;;;;;4993851;28;20509;-74
2021/09/20 16:18:59;;;;;;;18.40;17.10;;;18.90;99.90;;;;;;4998850;28;20465;-74
2021/09/20 16:21:26;;;;;;;18.17;16.97;;;19.00;99.90;;;;;;4999888;28;20458;-74
2021/09/20 16:23:53;;;;;;;18.43;17.23;;;18.80;99.90;;;;;;4996621;28;20467;-73
2021/09/20 16:26:21;;;;;;;17.83;16.73;;;18.90;99.90;;;;;;5002834;28;20451;-73
2021/09/20 16:28:48;;;;;;;19.23;18.13;;;18.90;99.90;;;;;;4994607;28;20454;-73
2021/09/20 16:31:14;;;;;;;18.67;17.57;;;18.80;99.90;;;;;;4994077;28;20450;-73
2021/09/20 16:33:42;;;;;;;19.87;18.50;;;18.80;99.90;;;;;;4994637;28;20462;-73
2021/09/20 16:36:08;;;;;;;20.20;18.90;;;18.70;99.90;;;;;;4994472;28;20482;-75
2021/09/20 16:38:36;;;;;;;20.70;19.10;;;18.50;99.90;;;;;;4994044;28;20455;-73
2021/09/20 16:41:04;;;;;;;20.83;19.40;;;18.40;99.90;;;;;;4994164;28;20832;-74
2021/09/20 16:43:32;;;;;;;19.87;18.03;;;18.30;99.90;;;;;;4994056;28;20477;-74
2021/09/20 16:45:59;;;;;;;21.70;20.10;;;18.40;99.90;;;;;;4993864;28;20479;-74
2021/09/20 16:48:25;;;;;;;18.53;17.20;;;18.40;99.90;;;;;;4994069;28;20454;-74
2021/09/20 16:50:52;;;;;;;20.37;18.87;;;18.20;99.90;;;;;;4994027;28;20450;-75
2021/09/20 16:53:20;;;;;;;18.77;17.43;;;18.20;99.90;;;;;;4994011;28;20456;-75
2021/09/20 16:55:46;;;;;;;20.23;18.83;;;18.10;99.90;;;;;;4993815;28;20509;-75
2021/09/20 16:58:13;;;;;;;21.00;19.70;;;18.10;99.90;;;;;;4993860;28;20470;-74
2021/09/20 17:00:42;;;;;;;20.83;19.43;;;18.10;99.90;;;;;;4993370;28;20451;-73
2021/09/20 17:03:09;;;;;;;21.63;20.03;;;18.00;99.90;;;;;;4993719;28;20886;-74
2021/09/20 17:05:36;;;;;;;20.50;19.00;;;17.90;99.90;;;;;;4991804;28;20447;-73
2021/09/20 17:08:04;;;;;;;19.00;17.70;;;17.90;99.90;;;;;;4992686;28;20454;-74
2021/09/20 17:10:31;;;;;;;21.47;19.97;;;17.80;99.90;;;;;;4993088;28;20457;-74
2021/09/20 17:12:57;;;;;;;20.03;18.70;;;17.80;99.90;;;;;;4993013;28;20832;-74
2021/09/20 17:15:25;;;;;;;20.50;18.97;;;17.80;99.90;;;;;;4993424;28;20451;-73
2021/09/20 17:17:53;;;;;;;21.10;19.70;;;17.80;99.90;;;;;;4992965;28;21019;-71
2021/09/20 17:20:20;;;;;;;21.17;19.77;;;17.70;99.90;;;;;;4993218;28;20846;-72